sensor_id;sensor_type;location;lat;lon;timestamp;P1;durP1;ratioP1;P2;durP2;ratioP2
13455;SDS011;6800;50.940;6.940;2023-07-20T00:00:57;5.50;;;3.78;;
13455;SDS011;6800;50.940;6.940;2023-07-20T00:04:58;4.40;;;3.15;;
13455;SDS011;6800;50.940;6.940;2023-07-20T00:09:00;5.25;;;2.97;;
13455;SDS011;6800;50.940;6.940;2023-07-20T00:13:01;6.13;;;4.03;;
13455;SDS011;6800;50.940;6.940;2023-07-20T00:17:03;11.30;;;9.40;;
13455;SDS011;6800;50.940;6.940;2023-07-20T00:21:04;6.05;;;3.67;;
13455;SDS011;6800;50.940;6.940;2023-07-20T00:25:06;4.05;;;2.67;;
13455;SDS011;6800;50.940;6.940;2023-07-20T00:29:16;8.35;;;3.92;;
13455;SDS011;6800;50.940;6.940;2023-07-20T00:33:27;3.92;;;2.50;;
13455;SDS011;6800;50.940;6.940;2023-07-20T00:38:29;4.65;;;4.20;;
13455;SDS011;6800;50.940;6.940;2023-07-20T00:42:42;4.53;;;2.92;;
13455;SDS011;6800;50.940;6.940;2023-07-20T00:46:43;5.05;;;3.10;;
13455;SDS011;6800;50.940;6.940;2023-07-20T00:50:45;4.85;;;4.38;;
13455;SDS011;6800;50.940;6.940;2023-07-20T00:54:49;5.53;;;3.95;;
13455;SDS011;6800;50.940;6.940;2023-07-20T00:58:51;4.68;;;3.22;;
13455;SDS011;6800;50.940;6.940;2023-07-20T01:02:53;7.30;;;3.47;;
13455;SDS011;6800;50.940;6.940;2023-07-20T01:07:00;3.78;;;3.08;;
13455;SDS011;6800;50.940;6.940;2023-07-20T01:15:35;3.47;;;2.60;;
13455;SDS011;6800;50.940;6.940;2023-07-20T01:19:37;5.55;;;3.38;;
13455;SDS011;6800;50.940;6.940;2023-07-20T01:23:44;4.82;;;2.78;;
13455;SDS011;6800;50.940;6.940;2023-07-20T01:32:06;5.30;;;3.28;;
13455;SDS011;6800;50.940;6.940;2023-07-20T01:36:10;6.88;;;3.30;;
13455;SDS011;6800;50.940;6.940;2023-07-20T01:40:13;4.85;;;2.88;;
13455;SDS011;6800;50.940;6.940;2023-07-20T01:44:15;5.00;;;2.45;;
13455;SDS011;6800;50.940;6.940;2023-07-20T01:48:17;4.07;;;2.50;;
13455;SDS011;6800;50.940;6.940;2023-07-20T01:52:18;3.72;;;2.85;;
13455;SDS011;6800;50.940;6.940;2023-07-20T01:56:20;3.53;;;3.22;;
13455;SDS011;6800;50.940;6.940;2023-07-20T02:00:22;5.07;;;4.57;;
13455;SDS011;6800;50.940;6.940;2023-07-20T02:04:25;4.15;;;3.75;;
13455;SDS011;6800;50.940;6.940;2023-07-20T02:08:26;4.28;;;3.10;;
13455;SDS011;6800;50.940;6.940;2023-07-20T02:12:28;5.00;;;3.47;;
13455;SDS011;6800;50.940;6.940;2023-07-20T02:16:29;5.07;;;3.17;;
13455;SDS011;6800;50.940;6.940;2023-07-20T02:20:31;5.30;;;3.30;;
13455;SDS011;6800;50.940;6.940;2023-07-20T02:24:33;4.13;;;3.42;;
13455;SDS011;6800;50.940;6.940;2023-07-20T02:28:34;5.22;;;4.22;;
13455;SDS011;6800;50.940;6.940;2023-07-20T02:32:36;8.98;;;6.88;;
13455;SDS011;6800;50.940;6.940;2023-07-20T02:36:38;4.43;;;4.03;;
13455;SDS011;6800;50.940;6.940;2023-07-20T02:40:39;5.47;;;3.58;;
13455;SDS011;6800;50.940;6.940;2023-07-20T02:44:41;6.15;;;4.10;;
13455;SDS011;6800;50.940;6.940;2023-07-20T02:48:42;6.38;;;3.97;;
13455;SDS011;6800;50.940;6.940;2023-07-20T02:52:43;6.05;;;3.33;;
13455;SDS011;6800;50.940;6.940;2023-07-20T02:56:45;5.15;;;3.70;;
13455;SDS011;6800;50.940;6.940;2023-07-20T03:00:46;5.68;;;3.97;;
13455;SDS011;6800;50.940;6.940;2023-07-20T03:04:48;5.50;;;3.90;;
13455;SDS011;6800;50.940;6.940;2023-07-20T03:08:49;5.13;;;3.75;;
13455;SDS011;6800;50.940;6.940;2023-07-20T03:12:53;5.30;;;3.55;;
13455;SDS011;6800;50.940;6.940;2023-07-20T03:16:54;4.57;;;3.47;;
13455;SDS011;6800;50.940;6.940;2023-07-20T03:20:55;4.72;;;3.42;;
13455;SDS011;6800;50.940;6.940;2023-07-20T03:24:57;6.53;;;3.50;;
13455;SDS011;6800;50.940;6.940;2023-07-20T03:28:58;6.93;;;3.40;;
13455;SDS011;6800;50.940;6.940;2023-07-20T03:32:59;5.15;;;3.67;;
13455;SDS011;6800;50.940;6.940;2023-07-20T03:37:01;4.25;;;3.50;;
13455;SDS011;6800;50.940;6.940;2023-07-20T03:41:05;5.60;;;3.38;;
13455;SDS011;6800;50.940;6.940;2023-07-20T03:45:07;3.53;;;3.05;;
13455;SDS011;6800;50.940;6.940;2023-07-20T03:49:09;5.85;;;3.35;;
13455;SDS011;6800;50.940;6.940;2023-07-20T03:53:14;4.03;;;3.22;;
13455;SDS011;6800;50.940;6.940;2023-07-20T03:57:16;6.07;;;3.20;;
13455;SDS011;6800;50.940;6.940;2023-07-20T04:01:18;4.95;;;2.92;;
13455;SDS011;6800;50.940;6.940;2023-07-20T04:05:19;5.60;;;2.72;;
13455;SDS011;6800;50.940;6.940;2023-07-20T04:09:21;6.63;;;3.25;;
13455;SDS011;6800;50.940;6.940;2023-07-20T04:13:22;3.67;;;3.00;;
13455;SDS011;6800;50.940;6.940;2023-07-20T04:17:24;4.57;;;3.00;;
13455;SDS011;6800;50.940;6.940;2023-07-20T04:21:26;4.45;;;3.03;;
13455;SDS011;6800;50.940;6.940;2023-07-20T04:25:29;5.30;;;3.30;;
13455;SDS011;6800;50.940;6.940;2023-07-20T04:29:31;4.93;;;3.20;;
13455;SDS011;6800;50.940;6.940;2023-07-20T04:33:33;4.38;;;3.08;;
13455;SDS011;6800;50.940;6.940;2023-07-20T04:37:34;6.90;;;3.05;;
13455;SDS011;6800;50.940;6.940;2023-07-20T04:41:35;9.10;;;3.17;;
13455;SDS011;6800;50.940;6.940;2023-07-20T04:45:37;7.15;;;3.40;;
13455;SDS011;6800;50.940;6.940;2023-07-20T04:49:38;4.40;;;3.10;;
13455;SDS011;6800;50.940;6.940;2023-07-20T04:53:40;6.30;;;3.25;;
13455;SDS011;6800;50.940;6.940;2023-07-20T04:57:41;5.60;;;3.17;;
13455;SDS011;6800;50.940;6.940;2023-07-20T05:01:43;8.73;;;3.92;;
13455;SDS011;6800;50.940;6.940;2023-07-20T05:05:44;6.90;;;3.90;;
13455;SDS011;6800;50.940;6.940;2023-07-20T05:09:49;5.60;;;3.92;;
13455;SDS011;6800;50.940;6.940;2023-07-20T05:13:50;7.47;;;3.92;;
13455;SDS011;6800;50.940;6.940;2023-07-20T05:17:52;6.68;;;4.00;;
13455;SDS011;6800;50.940;6.940;2023-07-20T05:21:53;8.45;;;4.65;;
13455;SDS011;6800;50.940;6.940;2023-07-20T05:25:55;5.30;;;3.80;;
13455;SDS011;6800;50.940;6.940;2023-07-20T05:29:57;5.43;;;4.28;;
13455;SDS011;6800;50.940;6.940;2023-07-20T05:33:59;7.60;;;4.28;;
13455;SDS011;6800;50.940;6.940;2023-07-20T05:38:03;7.80;;;4.50;;
13455;SDS011;6800;50.940;6.940;2023-07-20T05:42:05;9.48;;;4.93;;
13455;SDS011;6800;50.940;6.940;2023-07-20T05:46:08;13.85;;;5.68;;
13455;SDS011;6800;50.940;6.940;2023-07-20T05:50:10;7.20;;;4.65;;
13455;SDS011;6800;50.940;6.940;2023-07-20T05:54:11;7.05;;;5.03;;
13455;SDS011;6800;50.940;6.940;2023-07-20T05:58:13;9.02;;;5.20;;
13455;SDS011;6800;50.940;6.940;2023-07-20T06:02:14;19.75;;;8.77;;
13455;SDS011;6800;50.940;6.940;2023-07-20T06:06:16;8.80;;;6.60;;
13455;SDS011;6800;50.940;6.940;2023-07-20T06:10:17;9.57;;;6.68;;
13455;SDS011;6800;50.940;6.940;2023-07-20T06:14:19;8.57;;;6.50;;
13455;SDS011;6800;50.940;6.940;2023-07-20T06:18:22;9.10;;;6.85;;
13455;SDS011;6800;50.940;6.940;2023-07-20T06:22:24;11.05;;;7.70;;
13455;SDS011;6800;50.940;6.940;2023-07-20T06:26:25;8.77;;;7.22;;
13455;SDS011;6800;50.940;6.940;2023-07-20T06:30:27;8.95;;;7.03;;
13455;SDS011;6800;50.940;6.940;2023-07-20T06:34:28;9.32;;;7.53;;
13455;SDS011;6800;50.940;6.940;2023-07-20T06:38:30;13.82;;;8.00;;
13455;SDS011;6800;50.940;6.940;2023-07-20T06:42:33;7.13;;;6.47;;
13455;SDS011;6800;50.940;6.940;2023-07-20T06:46:37;9.30;;;6.90;;
13455;SDS011;6800;50.940;6.940;2023-07-20T06:50:39;7.68;;;6.60;;
13455;SDS011;6800;50.940;6.940;2023-07-20T06:54:40;8.13;;;6.18;;
13455;SDS011;6800;50.940;6.940;2023-07-20T06:58:45;7.32;;;5.50;;
13455;SDS011;6800;50.940;6.940;2023-07-20T07:02:46;7.43;;;6.43;;
13455;SDS011;6800;50.940;6.940;2023-07-20T07:06:51;6.68;;;5.95;;
13455;SDS011;6800;50.940;6.940;2023-07-20T07:10:52;8.80;;;7.07;;
13455;SDS011;6800;50.940;6.940;2023-07-20T07:14:54;7.85;;;7.05;;
13455;SDS011;6800;50.940;6.940;2023-07-20T07:18:55;8.88;;;6.47;;
13455;SDS011;6800;50.940;6.940;2023-07-20T07:23:03;7.95;;;5.55;;
13455;SDS011;6800;50.940;6.940;2023-07-20T07:27:05;8.25;;;6.38;;
13455;SDS011;6800;50.940;6.940;2023-07-20T07:31:07;6.55;;;5.53;;
13455;SDS011;6800;50.940;6.940;2023-07-20T07:35:08;12.30;;;6.20;;
13455;SDS011;6800;50.940;6.940;2023-07-20T07:39:10;135.40;;;18.92;;
13455;SDS011;6800;50.940;6.940;2023-07-20T07:43:15;15.18;;;6.57;;
13455;SDS011;6800;50.940;6.940;2023-07-20T07:47:16;10.15;;;5.65;;
13455;SDS011;6800;50.940;6.940;2023-07-20T07:51:18;5.55;;;4.95;;
13455;SDS011;6800;50.940;6.940;2023-07-20T07:55:20;4.93;;;4.38;;
13455;SDS011;6800;50.940;6.940;2023-07-20T07:59:21;7.93;;;5.45;;
13455;SDS011;6800;50.940;6.940;2023-07-20T08:03:23;9.82;;;4.93;;
13455;SDS011;6800;50.940;6.940;2023-07-20T08:07:25;5.30;;;4.40;;
13455;SDS011;6800;50.940;6.940;2023-07-20T08:11:27;4.25;;;3.95;;
13455;SDS011;6800;50.940;6.940;2023-07-20T08:15:28;5.57;;;4.30;;
13455;SDS011;6800;50.940;6.940;2023-07-20T08:19:30;5.28;;;3.50;;
13455;SDS011;6800;50.940;6.940;2023-07-20T08:23:31;5.90;;;3.13;;
13455;SDS011;6800;50.940;6.940;2023-07-20T08:27:33;3.20;;;2.90;;
13455;SDS011;6800;50.940;6.940;2023-07-20T08:31:35;4.35;;;3.20;;
13455;SDS011;6800;50.940;6.940;2023-07-20T08:35:36;4.50;;;3.28;;
13455;SDS011;6800;50.940;6.940;2023-07-20T08:39:38;3.85;;;2.78;;
13455;SDS011;6800;50.940;6.940;2023-07-20T08:43:40;3.55;;;2.75;;
13455;SDS011;6800;50.940;6.940;2023-07-20T08:47:44;3.13;;;2.78;;
13455;SDS011;6800;50.940;6.940;2023-07-20T08:51:46;4.72;;;3.10;;
13455;SDS011;6800;50.940;6.940;2023-07-20T08:55:50;5.00;;;2.47;;
13455;SDS011;6800;50.940;6.940;2023-07-20T08:59:55;3.15;;;2.42;;
13455;SDS011;6800;50.940;6.940;2023-07-20T09:03:56;2.58;;;1.70;;
13455;SDS011;6800;50.940;6.940;2023-07-20T09:07:58;2.83;;;2.00;;
13455;SDS011;6800;50.940;6.940;2023-07-20T09:11:59;5.25;;;2.15;;
13455;SDS011;6800;50.940;6.940;2023-07-20T09:16:00;4.65;;;2.75;;
13455;SDS011;6800;50.940;6.940;2023-07-20T09:20:03;3.42;;;2.15;;
13455;SDS011;6800;50.940;6.940;2023-07-20T09:24:12;3.05;;;2.60;;
13455;SDS011;6800;50.940;6.940;2023-07-20T09:28:14;4.35;;;3.53;;
13455;SDS011;6800;50.940;6.940;2023-07-20T09:32:17;3.58;;;2.13;;
13455;SDS011;6800;50.940;6.940;2023-07-20T09:36:26;3.20;;;2.33;;
13455;SDS011;6800;50.940;6.940;2023-07-20T09:40:37;3.75;;;2.80;;
13455;SDS011;6800;50.940;6.940;2023-07-20T09:44:45;3.22;;;2.20;;
13455;SDS011;6800;50.940;6.940;2023-07-20T09:48:53;3.40;;;2.50;;
13455;SDS011;6800;50.940;6.940;2023-07-20T09:52:57;4.80;;;2.80;;
13455;SDS011;6800;50.940;6.940;2023-07-20T09:57:02;3.17;;;2.28;;
13455;SDS011;6800;50.940;6.940;2023-07-20T10:01:04;3.35;;;1.67;;
13455;SDS011;6800;50.940;6.940;2023-07-20T10:05:08;3.20;;;1.73;;
13455;SDS011;6800;50.940;6.940;2023-07-20T10:09:13;3.22;;;1.75;;
13455;SDS011;6800;50.940;6.940;2023-07-20T10:13:37;2.25;;;1.30;;
13455;SDS011;6800;50.940;6.940;2023-07-20T10:17:41;7.72;;;1.65;;
13455;SDS011;6800;50.940;6.940;2023-07-20T10:22:00;3.33;;;2.03;;
13455;SDS011;6800;50.940;6.940;2023-07-20T10:26:10;7.18;;;2.00;;
13455;SDS011;6800;50.940;6.940;2023-07-20T10:30:12;5.90;;;4.88;;
13455;SDS011;6800;50.940;6.940;2023-07-20T10:34:14;4.05;;;1.58;;
13455;SDS011;6800;50.940;6.940;2023-07-20T10:38:16;2.92;;;1.85;;
13455;SDS011;6800;50.940;6.940;2023-07-20T10:42:18;3.50;;;1.75;;
13455;SDS011;6800;50.940;6.940;2023-07-20T10:50:41;2.80;;;1.50;;
13455;SDS011;6800;50.940;6.940;2023-07-20T10:54:47;3.15;;;1.63;;
13455;SDS011;6800;50.940;6.940;2023-07-20T10:58:50;3.75;;;1.73;;
13455;SDS011;6800;50.940;6.940;2023-07-20T11:02:52;2.88;;;1.55;;
13455;SDS011;6800;50.940;6.940;2023-07-20T11:07:00;3.08;;;1.20;;
13455;SDS011;6800;50.940;6.940;2023-07-20T11:15:24;2.75;;;1.05;;
13455;SDS011;6800;50.940;6.940;2023-07-20T11:19:26;7.25;;;1.52;;
13455;SDS011;6800;50.940;6.940;2023-07-20T11:23:30;3.35;;;1.23;;
13455;SDS011;6800;50.940;6.940;2023-07-20T11:27:33;3.60;;;1.42;;
13455;SDS011;6800;50.940;6.940;2023-07-20T11:31:45;3.92;;;1.40;;
13455;SDS011;6800;50.940;6.940;2023-07-20T11:35:49;2.35;;;1.90;;
13455;SDS011;6800;50.940;6.940;2023-07-20T11:39:57;2.13;;;1.20;;
13455;SDS011;6800;50.940;6.940;2023-07-20T11:43:58;2.95;;;1.40;;
13455;SDS011;6800;50.940;6.940;2023-07-20T11:48:00;2.25;;;1.33;;
13455;SDS011;6800;50.940;6.940;2023-07-20T11:52:02;2.72;;;1.40;;
13455;SDS011;6800;50.940;6.940;2023-07-20T11:56:05;5.38;;;1.45;;
13455;SDS011;6800;50.940;6.940;2023-07-20T12:00:06;2.95;;;1.50;;
13455;SDS011;6800;50.940;6.940;2023-07-20T12:04:12;3.88;;;1.10;;
13455;SDS011;6800;50.940;6.940;2023-07-20T12:08:14;4.25;;;2.05;;
13455;SDS011;6800;50.940;6.940;2023-07-20T12:12:18;2.28;;;1.98;;
13455;SDS011;6800;50.940;6.940;2023-07-20T12:16:21;6.18;;;1.42;;
13455;SDS011;6800;50.940;6.940;2023-07-20T12:20:33;2.20;;;1.35;;
13455;SDS011;6800;50.940;6.940;2023-07-20T12:24:38;8.93;;;1.63;;
13455;SDS011;6800;50.940;6.940;2023-07-20T12:28:40;4.25;;;3.85;;
13455;SDS011;6800;50.940;6.940;2023-07-20T12:32:42;1.77;;;1.45;;
13455;SDS011;6800;50.940;6.940;2023-07-20T12:36:43;3.60;;;1.48;;
13455;SDS011;6800;50.940;6.940;2023-07-20T12:40:44;10.73;;;1.90;;
13455;SDS011;6800;50.940;6.940;2023-07-20T12:44:46;2.97;;;1.30;;
13455;SDS011;6800;50.940;6.940;2023-07-20T12:48:48;2.38;;;1.50;;
13455;SDS011;6800;50.940;6.940;2023-07-20T12:52:50;10.00;;;1.55;;
13455;SDS011;6800;50.940;6.940;2023-07-20T12:56:51;5.95;;;1.80;;
13455;SDS011;6800;50.940;6.940;2023-07-20T13:00:56;7.03;;;1.80;;
13455;SDS011;6800;50.940;6.940;2023-07-20T13:05:00;1.23;;;0.90;;
13455;SDS011;6800;50.940;6.940;2023-07-20T13:09:02;2.72;;;1.33;;
13455;SDS011;6800;50.940;6.940;2023-07-20T13:13:04;3.47;;;1.33;;
13455;SDS011;6800;50.940;6.940;2023-07-20T13:17:06;4.93;;;1.05;;
13455;SDS011;6800;50.940;6.940;2023-07-20T13:21:09;2.17;;;1.27;;
13455;SDS011;6800;50.940;6.940;2023-07-20T13:25:13;3.55;;;1.23;;
13455;SDS011;6800;50.940;6.940;2023-07-20T13:29:16;1.92;;;1.30;;
13455;SDS011;6800;50.940;6.940;2023-07-20T13:33:18;4.13;;;1.55;;
13455;SDS011;6800;50.940;6.940;2023-07-20T13:37:20;2.42;;;1.58;;
13455;SDS011;6800;50.940;6.940;2023-07-20T13:41:22;2.88;;;1.25;;
13455;SDS011;6800;50.940;6.940;2023-07-20T13:45:25;3.55;;;1.13;;
13455;SDS011;6800;50.940;6.940;2023-07-20T13:49:26;5.32;;;1.90;;
13455;SDS011;6800;50.940;6.940;2023-07-20T13:53:28;4.07;;;1.73;;
13455;SDS011;6800;50.940;6.940;2023-07-20T13:57:32;3.72;;;1.30;;
13455;SDS011;6800;50.940;6.940;2023-07-20T14:01:35;2.72;;;1.33;;
13455;SDS011;6800;50.940;6.940;2023-07-20T14:05:39;4.85;;;1.45;;
13455;SDS011;6800;50.940;6.940;2023-07-20T14:09:43;2.55;;;1.20;;
13455;SDS011;6800;50.940;6.940;2023-07-20T14:13:47;1.70;;;1.38;;
13455;SDS011;6800;50.940;6.940;2023-07-20T14:17:49;2.65;;;1.30;;
13455;SDS011;6800;50.940;6.940;2023-07-20T14:21:50;5.95;;;1.60;;
13455;SDS011;6800;50.940;6.940;2023-07-20T14:25:52;2.50;;;1.10;;
13455;SDS011;6800;50.940;6.940;2023-07-20T14:29:53;1.77;;;1.13;;
13455;SDS011;6800;50.940;6.940;2023-07-20T14:33:54;0.80;;;0.70;;
13455;SDS011;6800;50.940;6.940;2023-07-20T14:37:56;3.25;;;0.80;;
13455;SDS011;6800;50.940;6.940;2023-07-20T14:41:58;1.40;;;1.30;;
13455;SDS011;6800;50.940;6.940;2023-07-20T14:45:59;2.80;;;1.05;;
13455;SDS011;6800;50.940;6.940;2023-07-20T14:50:01;2.33;;;1.02;;
13455;SDS011;6800;50.940;6.940;2023-07-20T14:54:03;2.58;;;1.08;;
13455;SDS011;6800;50.940;6.940;2023-07-20T14:58:05;3.17;;;1.20;;
13455;SDS011;6800;50.940;6.940;2023-07-20T15:02:06;3.63;;;2.45;;
13455;SDS011;6800;50.940;6.940;2023-07-20T15:06:11;1.88;;;1.17;;
13455;SDS011;6800;50.940;6.940;2023-07-20T15:10:12;1.58;;;1.10;;
13455;SDS011;6800;50.940;6.940;2023-07-20T15:14:14;2.38;;;1.52;;
13455;SDS011;6800;50.940;6.940;2023-07-20T15:18:16;1.50;;;1.10;;
13455;SDS011;6800;50.940;6.940;2023-07-20T15:22:17;1.10;;;1.00;;
13455;SDS011;6800;50.940;6.940;2023-07-20T15:26:19;2.40;;;1.20;;
13455;SDS011;6800;50.940;6.940;2023-07-20T15:30:22;2.67;;;1.45;;
13455;SDS011;6800;50.940;6.940;2023-07-20T15:34:27;1.63;;;1.25;;
13455;SDS011;6800;50.940;6.940;2023-07-20T15:38:29;2.95;;;1.30;;
13455;SDS011;6800;50.940;6.940;2023-07-20T15:42:31;2.60;;;1.33;;
13455;SDS011;6800;50.940;6.940;2023-07-20T15:50:40;1.55;;;0.85;;
13455;SDS011;6800;50.940;6.940;2023-07-20T15:54:42;5.13;;;1.27;;
13455;SDS011;6800;50.940;6.940;2023-07-20T15:58:43;2.50;;;1.20;;
13455;SDS011;6800;50.940;6.940;2023-07-20T16:02:45;2.03;;;1.10;;
13455;SDS011;6800;50.940;6.940;2023-07-20T16:06:47;4.60;;;1.20;;
13455;SDS011;6800;50.940;6.940;2023-07-20T16:10:48;2.70;;;1.25;;
13455;SDS011;6800;50.940;6.940;2023-07-20T16:14:54;2.75;;;1.10;;
13455;SDS011;6800;50.940;6.940;2023-07-20T16:18:58;1.48;;;1.15;;
13455;SDS011;6800;50.940;6.940;2023-07-20T16:23:00;2.42;;;1.20;;
13455;SDS011;6800;50.940;6.940;2023-07-20T16:27:01;3.50;;;1.80;;
13455;SDS011;6800;50.940;6.940;2023-07-20T16:31:09;2.28;;;1.48;;
13455;SDS011;6800;50.940;6.940;2023-07-20T16:35:12;1.52;;;1.02;;
13455;SDS011;6800;50.940;6.940;2023-07-20T16:39:13;1.23;;;1.13;;
13455;SDS011;6800;50.940;6.940;2023-07-20T16:43:17;2.22;;;1.17;;
13455;SDS011;6800;50.940;6.940;2023-07-20T16:47:39;4.35;;;1.38;;
13455;SDS011;6800;50.940;6.940;2023-07-20T16:51:40;1.38;;;1.13;;
13455;SDS011;6800;50.940;6.940;2023-07-20T16:55:42;2.35;;;1.60;;
13455;SDS011;6800;50.940;6.940;2023-07-20T16:59:43;1.77;;;1.10;;
13455;SDS011;6800;50.940;6.940;2023-07-20T17:03:45;3.35;;;1.08;;
13455;SDS011;6800;50.940;6.940;2023-07-20T17:07:48;3.15;;;1.02;;
13455;SDS011;6800;50.940;6.940;2023-07-20T17:11:52;3.42;;;1.25;;
13455;SDS011;6800;50.940;6.940;2023-07-20T17:15:53;2.83;;;1.38;;
13455;SDS011;6800;50.940;6.940;2023-07-20T17:19:54;2.08;;;1.13;;
13455;SDS011;6800;50.940;6.940;2023-07-20T17:23:59;2.65;;;1.27;;
13455;SDS011;6800;50.940;6.940;2023-07-20T17:28:02;2.83;;;1.45;;
13455;SDS011;6800;50.940;6.940;2023-07-20T17:32:06;4.00;;;1.13;;
13455;SDS011;6800;50.940;6.940;2023-07-20T17:36:08;2.28;;;1.10;;
13455;SDS011;6800;50.940;6.940;2023-07-20T17:40:13;2.08;;;1.10;;
13455;SDS011;6800;50.940;6.940;2023-07-20T17:44:18;2.58;;;1.40;;
13455;SDS011;6800;50.940;6.940;2023-07-20T17:48:21;3.92;;;1.00;;
13455;SDS011;6800;50.940;6.940;2023-07-20T17:52:23;1.98;;;1.48;;
13455;SDS011;6800;50.940;6.940;2023-07-20T17:56:25;2.13;;;1.55;;
13455;SDS011;6800;50.940;6.940;2023-07-20T18:00:26;4.15;;;1.40;;
13455;SDS011;6800;50.940;6.940;2023-07-20T18:04:31;1.15;;;0.98;;
13455;SDS011;6800;50.940;6.940;2023-07-20T18:08:32;7.80;;;1.70;;
13455;SDS011;6800;50.940;6.940;2023-07-20T18:12:34;1.77;;;1.30;;
13455;SDS011;6800;50.940;6.940;2023-07-20T18:16:36;2.38;;;1.45;;
13455;SDS011;6800;50.940;6.940;2023-07-20T18:20:37;2.05;;;1.10;;
13455;SDS011;6800;50.940;6.940;2023-07-20T18:24:39;1.88;;;1.58;;
13455;SDS011;6800;50.940;6.940;2023-07-20T18:28:40;2.45;;;1.23;;
13455;SDS011;6800;50.940;6.940;2023-07-20T18:32:43;1.90;;;1.10;;
13455;SDS011;6800;50.940;6.940;2023-07-20T18:36:44;2.78;;;1.48;;
13455;SDS011;6800;50.940;6.940;2023-07-20T18:40:45;1.95;;;1.00;;
13455;SDS011;6800;50.940;6.940;2023-07-20T18:44:47;3.05;;;1.33;;
13455;SDS011;6800;50.940;6.940;2023-07-20T18:48:48;2.05;;;1.58;;
13455;SDS011;6800;50.940;6.940;2023-07-20T18:52:50;2.03;;;1.50;;
13455;SDS011;6800;50.940;6.940;2023-07-20T18:56:54;3.97;;;2.55;;
13455;SDS011;6800;50.940;6.940;2023-07-20T19:00:59;3.65;;;2.05;;
13455;SDS011;6800;50.940;6.940;2023-07-20T19:05:01;3.70;;;1.35;;
13455;SDS011;6800;50.940;6.940;2023-07-20T19:09:02;2.50;;;1.50;;
13455;SDS011;6800;50.940;6.940;2023-07-20T19:13:05;2.28;;;1.20;;
13455;SDS011;6800;50.940;6.940;2023-07-20T19:17:06;1.48;;;1.30;;
13455;SDS011;6800;50.940;6.940;2023-07-20T19:21:08;1.63;;;1.45;;
13455;SDS011;6800;50.940;6.940;2023-07-20T19:25:10;1.67;;;1.58;;
13455;SDS011;6800;50.940;6.940;2023-07-20T19:29:12;1.42;;;1.33;;
13455;SDS011;6800;50.940;6.940;2023-07-20T19:33:13;1.52;;;1.27;;
13455;SDS011;6800;50.940;6.940;2023-07-20T19:37:15;1.90;;;1.40;;
13455;SDS011;6800;50.940;6.940;2023-07-20T19:41:16;5.75;;;1.50;;
13455;SDS011;6800;50.940;6.940;2023-07-20T19:45:18;3.42;;;1.80;;
13455;SDS011;6800;50.940;6.940;2023-07-20T19:49:19;2.22;;;1.85;;
13455;SDS011;6800;50.940;6.940;2023-07-20T19:53:21;1.20;;;1.10;;
13455;SDS011;6800;50.940;6.940;2023-07-20T19:57:25;2.63;;;1.90;;
13455;SDS011;6800;50.940;6.940;2023-07-20T20:01:29;3.85;;;2.00;;
13455;SDS011;6800;50.940;6.940;2023-07-20T20:05:36;2.75;;;1.42;;
13455;SDS011;6800;50.940;6.940;2023-07-20T20:09:38;3.10;;;1.60;;
13455;SDS011;6800;50.940;6.940;2023-07-20T20:13:42;5.13;;;2.17;;
13455;SDS011;6800;50.940;6.940;2023-07-20T20:17:43;2.83;;;2.03;;
13455;SDS011;6800;50.940;6.940;2023-07-20T20:21:45;5.82;;;2.63;;
13455;SDS011;6800;50.940;6.940;2023-07-20T20:25:46;2.53;;;2.00;;
13455;SDS011;6800;50.940;6.940;2023-07-20T20:29:49;2.45;;;1.95;;
13455;SDS011;6800;50.940;6.940;2023-07-20T20:33:51;4.00;;;2.90;;
13455;SDS011;6800;50.940;6.940;2023-07-20T20:37:53;3.42;;;2.80;;
13455;SDS011;6800;50.940;6.940;2023-07-20T20:41:55;2.50;;;2.30;;
13455;SDS011;6800;50.940;6.940;2023-07-20T20:46:00;2.10;;;1.90;;
13455;SDS011;6800;50.940;6.940;2023-07-20T20:50:05;3.30;;;2.20;;
13455;SDS011;6800;50.940;6.940;2023-07-20T20:54:11;2.08;;;1.90;;
13455;SDS011;6800;50.940;6.940;2023-07-20T20:58:13;4.97;;;2.90;;
13455;SDS011;6800;50.940;6.940;2023-07-20T21:02:14;5.90;;;2.25;;
13455;SDS011;6800;50.940;6.940;2023-07-20T21:06:21;5.07;;;2.30;;
13455;SDS011;6800;50.940;6.940;2023-07-20T21:10:23;7.18;;;3.10;;
13455;SDS011;6800;50.940;6.940;2023-07-20T21:14:25;5.00;;;3.92;;
13455;SDS011;6800;50.940;6.940;2023-07-20T21:18:27;6.55;;;3.58;;
13455;SDS011;6800;50.940;6.940;2023-07-20T21:22:28;7.60;;;4.28;;
13455;SDS011;6800;50.940;6.940;2023-07-20T21:26:30;7.78;;;5.15;;
13455;SDS011;6800;50.940;6.940;2023-07-20T21:30:31;6.25;;;5.07;;
13455;SDS011;6800;50.940;6.940;2023-07-20T21:34:33;7.30;;;6.50;;
13455;SDS011;6800;50.940;6.940;2023-07-20T21:38:34;8.05;;;6.90;;
13455;SDS011;6800;50.940;6.940;2023-07-20T21:42:39;7.07;;;6.40;;
13455;SDS011;6800;50.940;6.940;2023-07-20T21:46:40;11.27;;;10.30;;
13455;SDS011;6800;50.940;6.940;2023-07-20T21:50:48;9.03;;;8.33;;
13455;SDS011;6800;50.940;6.940;2023-07-20T21:54:50;12.20;;;11.40;;
13455;SDS011;6800;50.940;6.940;2023-07-20T21:58:53;11.53;;;10.77;;
13455;SDS011;6800;50.940;6.940;2023-07-20T22:02:55;11.67;;;10.87;;
13455;SDS011;6800;50.940;6.940;2023-07-20T22:06:58;12.87;;;11.77;;
13455;SDS011;6800;50.940;6.940;2023-07-20T22:11:08;15.40;;;14.40;;
13455;SDS011;6800;50.940;6.940;2023-07-20T22:15:10;13.43;;;12.63;;
13455;SDS011;6800;50.940;6.940;2023-07-20T22:19:13;13.13;;;12.20;;
13455;SDS011;6800;50.940;6.940;2023-07-20T22:23:19;12.37;;;11.47;;
13455;SDS011;6800;50.940;6.940;2023-07-20T22:27:22;13.30;;;12.33;;
13455;SDS011;6800;50.940;6.940;2023-07-20T22:31:23;9.07;;;8.27;;
13455;SDS011;6800;50.940;6.940;2023-07-20T22:35:25;8.68;;;7.88;;
13455;SDS011;6800;50.940;6.940;2023-07-20T22:39:26;8.47;;;7.77;;
13455;SDS011;6800;50.940;6.940;2023-07-20T22:43:28;8.98;;;8.13;;
13455;SDS011;6800;50.940;6.940;2023-07-20T22:47:30;9.80;;;8.90;;
13455;SDS011;6800;50.940;6.940;2023-07-20T22:51:32;10.77;;;9.87;;
13455;SDS011;6800;50.940;6.940;2023-07-20T22:55:33;10.43;;;9.53;;
13455;SDS011;6800;50.940;6.940;2023-07-20T22:59:34;8.67;;;7.90;;
13455;SDS011;6800;50.940;6.940;2023-07-20T23:03:36;7.97;;;7.27;;
13455;SDS011;6800;50.940;6.940;2023-07-20T23:07:38;7.60;;;7.00;;
13455;SDS011;6800;50.940;6.940;2023-07-20T23:11:40;7.60;;;6.90;;
13455;SDS011;6800;50.940;6.940;2023-07-20T23:15:41;7.67;;;6.97;;
13455;SDS011;6800;50.940;6.940;2023-07-20T23:19:43;8.07;;;7.27;;
13455;SDS011;6800;50.940;6.940;2023-07-20T23:23:44;7.47;;;6.77;;
13455;SDS011;6800;50.940;6.940;2023-07-20T23:27:47;7.40;;;6.73;;
13455;SDS011;6800;50.940;6.940;2023-07-20T23:31:49;7.50;;;6.90;;
13455;SDS011;6800;50.940;6.940;2023-07-20T23:35:51;6.80;;;6.20;;
13455;SDS011;6800;50.940;6.940;2023-07-20T23:39:52;6.80;;;6.30;;
13455;SDS011;6800;50.940;6.940;2023-07-20T23:43:54;7.10;;;6.40;;
13455;SDS011;6800;50.940;6.940;2023-07-20T23:47:59;6.53;;;6.03;;
13455;SDS011;6800;50.940;6.940;2023-07-20T23:52:01;6.30;;;5.70;;
13455;SDS011;6800;50.940;6.940;2023-07-20T23:56:03;6.67;;;6.07;;
